ENCN/KRS METAR and TAF weather

Enter ICAO airport designator
Station Type Date Time Source
ENCN METAR 2024/02/26 17:50 UTC NOAA

ENCN 261750Z 05003KT CAVOK 00/M02 Q1016


Station Type Date Time Source
ENCN Decoded METAR 2024/02/26 17:50 UTC NOAA

Kristiansand / Kjevik, Norway (ENCN) 58-12N 008-05E 17M
Feb 26, 2024 - 12:50 PM EST / 2024.02.26 1750 UTC
Wind: from the NE (050 degrees) at 3 MPH (3 KT):0
Visibility: greater than 7 mile(s):0
Temperature: 32 F (0 C)
Dew Point: 28 F (-2 C)
Relative Humidity: 86%
Pressure (altimeter): 30.00 in. Hg (1016 hPa)
ob: ENCN 261750Z 05003KT CAVOK 00/M02 Q1016
cycle: 18

Station Type Date Time Source
ENCN TAF 2016/05/06 12:39 UTC NOAA